sensor_id;sensor_type;location;lat;lon;timestamp;P1;durP1;ratioP1;P2;durP2;ratioP2
72394;SDS011;60384;48.152;11.614;2024-01-11T00:05:48;26.13;;;8.80;;
72394;SDS011;60384;48.152;11.614;2024-01-11T00:08:50;20.38;;;7.93;;
72394;SDS011;60384;48.152;11.614;2024-01-11T00:14:54;30.95;;;11.07;;
72394;SDS011;60384;48.152;11.614;2024-01-11T00:17:56;27.80;;;9.02;;
72394;SDS011;60384;48.152;11.614;2024-01-11T00:20:59;27.25;;;9.25;;
72394;SDS011;60384;48.152;11.614;2024-01-11T00:24:01;32.22;;;10.35;;
72394;SDS011;60384;48.152;11.614;2024-01-11T00:30:06;19.73;;;8.15;;
72394;SDS011;60384;48.152;11.614;2024-01-11T00:33:09;31.08;;;10.60;;
72394;SDS011;60384;48.152;11.614;2024-01-11T00:36:12;33.25;;;10.93;;
72394;SDS011;60384;48.152;11.614;2024-01-11T00:39:19;29.58;;;10.80;;
72394;SDS011;60384;48.152;11.614;2024-01-11T00:42:21;37.65;;;11.30;;
72394;SDS011;60384;48.152;11.614;2024-01-11T00:45:23;17.67;;;6.07;;
72394;SDS011;60384;48.152;11.614;2024-01-11T00:48:25;34.88;;;12.77;;
72394;SDS011;60384;48.152;11.614;2024-01-11T00:54:30;3.58;;;1.92;;
72394;SDS011;60384;48.152;11.614;2024-01-11T00:57:32;7.78;;;3.10;;
72394;SDS011;60384;48.152;11.614;2024-01-11T01:00:33;26.15;;;9.60;;
72394;SDS011;60384;48.152;11.614;2024-01-11T01:03:35;21.52;;;7.85;;
72394;SDS011;60384;48.152;11.614;2024-01-11T01:06:39;16.58;;;5.60;;
72394;SDS011;60384;48.152;11.614;2024-01-11T01:09:41;27.83;;;9.35;;
72394;SDS011;60384;48.152;11.614;2024-01-11T01:15:44;17.13;;;7.38;;
72394;SDS011;60384;48.152;11.614;2024-01-11T01:18:47;23.83;;;10.13;;
72394;SDS011;60384;48.152;11.614;2024-01-11T01:24:52;0.28;;;0.17;;
72394;SDS011;60384;48.152;11.614;2024-01-11T01:30:56;23.63;;;7.90;;
72394;SDS011;60384;48.152;11.614;2024-01-11T01:33:58;20.27;;;7.55;;
72394;SDS011;60384;48.152;11.614;2024-01-11T01:37:02;24.27;;;9.82;;
72394;SDS011;60384;48.152;11.614;2024-01-11T01:40:04;32.90;;;11.45;;
72394;SDS011;60384;48.152;11.614;2024-01-11T01:43:07;36.80;;;11.77;;
72394;SDS011;60384;48.152;11.614;2024-01-11T01:46:10;33.67;;;11.30;;
72394;SDS011;60384;48.152;11.614;2024-01-11T01:49:12;6.57;;;3.55;;
72394;SDS011;60384;48.152;11.614;2024-01-11T01:52:16;24.85;;;9.88;;
72394;SDS011;60384;48.152;11.614;2024-01-11T01:55:18;33.38;;;10.95;;
72394;SDS011;60384;48.152;11.614;2024-01-11T01:58:21;20.77;;;7.63;;
72394;SDS011;60384;48.152;11.614;2024-01-11T02:01:24;28.23;;;9.35;;
72394;SDS011;60384;48.152;11.614;2024-01-11T02:04:27;29.15;;;7.32;;
72394;SDS011;60384;48.152;11.614;2024-01-11T02:07:31;29.70;;;9.48;;
72394;SDS011;60384;48.152;11.614;2024-01-11T02:10:33;24.60;;;9.70;;
72394;SDS011;60384;48.152;11.614;2024-01-11T02:13:37;24.10;;;8.35;;
72394;SDS011;60384;48.152;11.614;2024-01-11T02:16:39;25.27;;;8.18;;
72394;SDS011;60384;48.152;11.614;2024-01-11T02:19:41;21.60;;;7.95;;
72394;SDS011;60384;48.152;11.614;2024-01-11T02:25:49;27.58;;;8.50;;
72394;SDS011;60384;48.152;11.614;2024-01-11T02:28:51;26.73;;;8.30;;
72394;SDS011;60384;48.152;11.614;2024-01-11T02:34:55;23.30;;;8.20;;
72394;SDS011;60384;48.152;11.614;2024-01-11T02:41:02;22.58;;;8.38;;
72394;SDS011;60384;48.152;11.614;2024-01-11T02:44:05;15.60;;;4.25;;
72394;SDS011;60384;48.152;11.614;2024-01-11T02:50:08;22.02;;;6.72;;
72394;SDS011;60384;48.152;11.614;2024-01-11T02:53:12;30.85;;;9.52;;
72394;SDS011;60384;48.152;11.614;2024-01-11T02:59:17;18.85;;;7.57;;
72394;SDS011;60384;48.152;11.614;2024-01-11T03:02:19;22.33;;;7.47;;
72394;SDS011;60384;48.152;11.614;2024-01-11T03:08:22;24.15;;;7.55;;
72394;SDS011;60384;48.152;11.614;2024-01-11T03:11:26;23.13;;;8.68;;
72394;SDS011;60384;48.152;11.614;2024-01-11T03:14:28;26.00;;;8.75;;
72394;SDS011;60384;48.152;11.614;2024-01-11T03:17:30;26.30;;;8.98;;
72394;SDS011;60384;48.152;11.614;2024-01-11T03:20:32;24.10;;;8.65;;
72394;SDS011;60384;48.152;11.614;2024-01-11T03:26:37;12.00;;;4.15;;
72394;SDS011;60384;48.152;11.614;2024-01-11T03:29:40;17.55;;;6.75;;
72394;SDS011;60384;48.152;11.614;2024-01-11T03:32:42;32.03;;;9.80;;
72394;SDS011;60384;48.152;11.614;2024-01-11T03:35:46;23.65;;;7.00;;
72394;SDS011;60384;48.152;11.614;2024-01-11T03:38:48;21.30;;;8.10;;
72394;SDS011;60384;48.152;11.614;2024-01-11T03:44:53;19.77;;;7.80;;
72394;SDS011;60384;48.152;11.614;2024-01-11T03:47:55;21.85;;;7.95;;
72394;SDS011;60384;48.152;11.614;2024-01-11T03:53:59;30.60;;;8.70;;
72394;SDS011;60384;48.152;11.614;2024-01-11T03:57:03;20.38;;;8.43;;
72394;SDS011;60384;48.152;11.614;2024-01-11T04:00:06;22.08;;;7.95;;
72394;SDS011;60384;48.152;11.614;2024-01-11T04:03:09;24.38;;;7.68;;
72394;SDS011;60384;48.152;11.614;2024-01-11T04:09:21;20.33;;;7.53;;
72394;SDS011;60384;48.152;11.614;2024-01-11T04:12:24;21.00;;;7.72;;
72394;SDS011;60384;48.152;11.614;2024-01-11T04:15:26;25.30;;;8.85;;
72394;SDS011;60384;48.152;11.614;2024-01-11T04:21:30;20.98;;;8.50;;
72394;SDS011;60384;48.152;11.614;2024-01-11T04:24:32;23.98;;;8.10;;
72394;SDS011;60384;48.152;11.614;2024-01-11T04:27:35;21.65;;;8.18;;
72394;SDS011;60384;48.152;11.614;2024-01-11T04:30:37;20.17;;;7.53;;
72394;SDS011;60384;48.152;11.614;2024-01-11T04:33:40;21.40;;;8.90;;
72394;SDS011;60384;48.152;11.614;2024-01-11T04:36:42;28.27;;;8.52;;
72394;SDS011;60384;48.152;11.614;2024-01-11T04:42:47;21.63;;;7.13;;
72394;SDS011;60384;48.152;11.614;2024-01-11T04:45:49;23.00;;;8.18;;
72394;SDS011;60384;48.152;11.614;2024-01-11T04:48:51;19.80;;;7.70;;
72394;SDS011;60384;48.152;11.614;2024-01-11T04:51:54;27.10;;;9.93;;
72394;SDS011;60384;48.152;11.614;2024-01-11T04:57:59;17.48;;;7.55;;
72394;SDS011;60384;48.152;11.614;2024-01-11T05:01:01;19.40;;;7.85;;
72394;SDS011;60384;48.152;11.614;2024-01-11T05:07:05;19.52;;;7.43;;
72394;SDS011;60384;48.152;11.614;2024-01-11T05:10:07;23.77;;;8.43;;
72394;SDS011;60384;48.152;11.614;2024-01-11T05:13:11;19.85;;;8.30;;
72394;SDS011;60384;48.152;11.614;2024-01-11T05:16:18;18.73;;;8.10;;
72394;SDS011;60384;48.152;11.614;2024-01-11T05:19:26;27.45;;;9.35;;
72394;SDS011;60384;48.152;11.614;2024-01-11T05:22:28;20.42;;;7.43;;
72394;SDS011;60384;48.152;11.614;2024-01-11T05:28:35;15.75;;;6.80;;
72394;SDS011;60384;48.152;11.614;2024-01-11T05:31:38;21.23;;;8.52;;
72394;SDS011;60384;48.152;11.614;2024-01-11T05:34:40;22.75;;;7.75;;
72394;SDS011;60384;48.152;11.614;2024-01-11T05:37:44;20.70;;;7.53;;
72394;SDS011;60384;48.152;11.614;2024-01-11T05:43:49;25.95;;;8.95;;
72394;SDS011;60384;48.152;11.614;2024-01-11T05:46:51;17.75;;;6.30;;
72394;SDS011;60384;48.152;11.614;2024-01-11T05:49:53;16.20;;;8.13;;
72394;SDS011;60384;48.152;11.614;2024-01-11T05:52:56;23.75;;;8.50;;
72394;SDS011;60384;48.152;11.614;2024-01-11T05:55:58;25.13;;;8.35;;
72394;SDS011;60384;48.152;11.614;2024-01-11T06:02:03;5.97;;;3.58;;
72394;SDS011;60384;48.152;11.614;2024-01-11T06:05:07;9.48;;;4.40;;
72394;SDS011;60384;48.152;11.614;2024-01-11T06:08:10;12.75;;;6.03;;
72394;SDS011;60384;48.152;11.614;2024-01-11T06:14:15;19.50;;;6.47;;
72394;SDS011;60384;48.152;11.614;2024-01-11T06:17:17;20.48;;;7.50;;
72394;SDS011;60384;48.152;11.614;2024-01-11T06:20:21;22.02;;;8.02;;
72394;SDS011;60384;48.152;11.614;2024-01-11T06:26:25;20.48;;;6.75;;
72394;SDS011;60384;48.152;11.614;2024-01-11T06:29:29;9.63;;;3.83;;
72394;SDS011;60384;48.152;11.614;2024-01-11T06:32:31;17.65;;;6.10;;
72394;SDS011;60384;48.152;11.614;2024-01-11T06:35:33;15.82;;;6.70;;
72394;SDS011;60384;48.152;11.614;2024-01-11T06:38:35;12.38;;;4.55;;
72394;SDS011;60384;48.152;11.614;2024-01-11T06:44:40;19.75;;;7.50;;
72394;SDS011;60384;48.152;11.614;2024-01-11T06:47:42;15.35;;;6.20;;
72394;SDS011;60384;48.152;11.614;2024-01-11T06:50:45;15.73;;;6.68;;
72394;SDS011;60384;48.152;11.614;2024-01-11T06:56:49;18.02;;;7.22;;
72394;SDS011;60384;48.152;11.614;2024-01-11T07:02:54;12.82;;;4.05;;
72394;SDS011;60384;48.152;11.614;2024-01-11T07:08:58;19.75;;;6.75;;
72394;SDS011;60384;48.152;11.614;2024-01-11T07:12:02;14.57;;;5.38;;
72394;SDS011;60384;48.152;11.614;2024-01-11T07:15:06;20.95;;;6.88;;
72394;SDS011;60384;48.152;11.614;2024-01-11T07:18:09;20.20;;;7.55;;
72394;SDS011;60384;48.152;11.614;2024-01-11T07:24:14;18.25;;;6.40;;
72394;SDS011;60384;48.152;11.614;2024-01-11T07:27:21;21.98;;;7.65;;
72394;SDS011;60384;48.152;11.614;2024-01-11T07:30:25;17.95;;;6.22;;
72394;SDS011;60384;48.152;11.614;2024-01-11T07:33:27;21.73;;;6.75;;
72394;SDS011;60384;48.152;11.614;2024-01-11T07:36:29;24.05;;;8.07;;
72394;SDS011;60384;48.152;11.614;2024-01-11T07:39:31;18.17;;;5.95;;
72394;SDS011;60384;48.152;11.614;2024-01-11T07:45:36;18.88;;;7.65;;
72394;SDS011;60384;48.152;11.614;2024-01-11T07:48:45;19.38;;;7.38;;
72394;SDS011;60384;48.152;11.614;2024-01-11T07:51:47;18.25;;;7.03;;
72394;SDS011;60384;48.152;11.614;2024-01-11T07:54:49;15.48;;;6.00;;
72394;SDS011;60384;48.152;11.614;2024-01-11T08:00:54;24.45;;;8.68;;
72394;SDS011;60384;48.152;11.614;2024-01-11T08:03:56;14.70;;;5.80;;
72394;SDS011;60384;48.152;11.614;2024-01-11T08:13:05;18.55;;;5.38;;
72394;SDS011;60384;48.152;11.614;2024-01-11T08:16:15;23.95;;;7.68;;
72394;SDS011;60384;48.152;11.614;2024-01-11T08:19:18;24.00;;;8.75;;
72394;SDS011;60384;48.152;11.614;2024-01-11T08:25:21;22.55;;;10.48;;
72394;SDS011;60384;48.152;11.614;2024-01-11T08:28:23;30.73;;;10.93;;
72394;SDS011;60384;48.152;11.614;2024-01-11T08:31:27;24.23;;;10.07;;
72394;SDS011;60384;48.152;11.614;2024-01-11T08:34:29;24.38;;;10.30;;
72394;SDS011;60384;48.152;11.614;2024-01-11T08:37:32;22.33;;;9.32;;
72394;SDS011;60384;48.152;11.614;2024-01-11T08:40:34;24.25;;;8.48;;
72394;SDS011;60384;48.152;11.614;2024-01-11T08:43:37;31.42;;;10.43;;
72394;SDS011;60384;48.152;11.614;2024-01-11T08:46:41;22.10;;;7.97;;
72394;SDS011;60384;48.152;11.614;2024-01-11T08:49:44;25.45;;;10.15;;
72394;SDS011;60384;48.152;11.614;2024-01-11T08:52:46;21.92;;;9.23;;
72394;SDS011;60384;48.152;11.614;2024-01-11T08:55:48;28.23;;;9.77;;
72394;SDS011;60384;48.152;11.614;2024-01-11T08:58:53;19.80;;;6.90;;
72394;SDS011;60384;48.152;11.614;2024-01-11T09:04:58;17.58;;;7.85;;
72394;SDS011;60384;48.152;11.614;2024-01-11T09:08:01;13.60;;;6.10;;
72394;SDS011;60384;48.152;11.614;2024-01-11T09:14:05;25.10;;;8.82;;
72394;SDS011;60384;48.152;11.614;2024-01-11T09:17:09;15.32;;;6.63;;
72394;SDS011;60384;48.152;11.614;2024-01-11T09:20:11;27.05;;;10.98;;
72394;SDS011;60384;48.152;11.614;2024-01-11T09:23:17;27.77;;;11.38;;
72394;SDS011;60384;48.152;11.614;2024-01-11T09:26:19;32.45;;;12.23;;
72394;SDS011;60384;48.152;11.614;2024-01-11T09:29:22;23.02;;;9.23;;
72394;SDS011;60384;48.152;11.614;2024-01-11T09:32:26;11.32;;;3.78;;
72394;SDS011;60384;48.152;11.614;2024-01-11T09:35:28;35.03;;;13.93;;
72394;SDS011;60384;48.152;11.614;2024-01-11T09:38:30;35.95;;;13.75;;
72394;SDS011;60384;48.152;11.614;2024-01-11T09:41:33;40.58;;;14.98;;
72394;SDS011;60384;48.152;11.614;2024-01-11T09:44:38;44.17;;;14.27;;
72394;SDS011;60384;48.152;11.614;2024-01-11T09:47:42;41.13;;;15.45;;
72394;SDS011;60384;48.152;11.614;2024-01-11T09:50:46;38.33;;;13.80;;
72394;SDS011;60384;48.152;11.614;2024-01-11T09:53:49;38.33;;;14.20;;
72394;SDS011;60384;48.152;11.614;2024-01-11T09:56:53;39.35;;;13.73;;
72394;SDS011;60384;48.152;11.614;2024-01-11T09:59:59;39.28;;;15.15;;
72394;SDS011;60384;48.152;11.614;2024-01-11T10:03:09;36.28;;;12.80;;
72394;SDS011;60384;48.152;11.614;2024-01-11T10:06:11;33.40;;;13.32;;
72394;SDS011;60384;48.152;11.614;2024-01-11T10:09:16;31.23;;;12.63;;
72394;SDS011;60384;48.152;11.614;2024-01-11T10:12:18;40.53;;;14.30;;
72394;SDS011;60384;48.152;11.614;2024-01-11T10:15:23;27.58;;;10.57;;
72394;SDS011;60384;48.152;11.614;2024-01-11T10:18:27;26.77;;;10.02;;
72394;SDS011;60384;48.152;11.614;2024-01-11T10:21:29;34.67;;;12.52;;
72394;SDS011;60384;48.152;11.614;2024-01-11T10:24:32;16.88;;;7.07;;
72394;SDS011;60384;48.152;11.614;2024-01-11T10:27:35;44.58;;;13.60;;
72394;SDS011;60384;48.152;11.614;2024-01-11T10:30:37;35.90;;;14.38;;
72394;SDS011;60384;48.152;11.614;2024-01-11T10:33:42;41.67;;;14.73;;
72394;SDS011;60384;48.152;11.614;2024-01-11T10:36:44;40.15;;;14.52;;
72394;SDS011;60384;48.152;11.614;2024-01-11T10:39:46;9.85;;;4.30;;
72394;SDS011;60384;48.152;11.614;2024-01-11T10:42:51;40.40;;;14.43;;
72394;SDS011;60384;48.152;11.614;2024-01-11T10:45:57;39.40;;;13.95;;
72394;SDS011;60384;48.152;11.614;2024-01-11T10:49:05;37.55;;;14.60;;
72394;SDS011;60384;48.152;11.614;2024-01-11T10:52:09;37.78;;;13.68;;
72394;SDS011;60384;48.152;11.614;2024-01-11T10:55:14;47.03;;;14.82;;
72394;SDS011;60384;48.152;11.614;2024-01-11T10:58:17;40.25;;;14.80;;
72394;SDS011;60384;48.152;11.614;2024-01-11T11:01:21;44.63;;;15.35;;
72394;SDS011;60384;48.152;11.614;2024-01-11T11:04:25;40.17;;;14.68;;
72394;SDS011;60384;48.152;11.614;2024-01-11T11:07:29;41.20;;;14.05;;
72394;SDS011;60384;48.152;11.614;2024-01-11T11:10:32;41.25;;;13.23;;
72394;SDS011;60384;48.152;11.614;2024-01-11T11:13:35;30.60;;;10.50;;
72394;SDS011;60384;48.152;11.614;2024-01-11T11:16:37;35.50;;;14.85;;
72394;SDS011;60384;48.152;11.614;2024-01-11T11:19:40;45.08;;;16.73;;
72394;SDS011;60384;48.152;11.614;2024-01-11T11:22:47;31.35;;;9.73;;
72394;SDS011;60384;48.152;11.614;2024-01-11T11:25:50;40.95;;;15.02;;
72394;SDS011;60384;48.152;11.614;2024-01-11T11:28:56;37.97;;;14.50;;
72394;SDS011;60384;48.152;11.614;2024-01-11T11:31:58;33.78;;;13.45;;
72394;SDS011;60384;48.152;11.614;2024-01-11T11:35:02;30.83;;;12.63;;
72394;SDS011;60384;48.152;11.614;2024-01-11T11:38:05;61.58;;;15.80;;
72394;SDS011;60384;48.152;11.614;2024-01-11T11:41:07;31.83;;;12.65;;
72394;SDS011;60384;48.152;11.614;2024-01-11T11:47:19;36.42;;;13.75;;
72394;SDS011;60384;48.152;11.614;2024-01-11T11:50:24;41.58;;;15.45;;
72394;SDS011;60384;48.152;11.614;2024-01-11T11:53:26;1.98;;;0.68;;
72394;SDS011;60384;48.152;11.614;2024-01-11T11:56:34;41.53;;;15.25;;
72394;SDS011;60384;48.152;11.614;2024-01-11T11:59:37;40.83;;;15.18;;
72394;SDS011;60384;48.152;11.614;2024-01-11T12:02:40;44.65;;;16.13;;
72394;SDS011;60384;48.152;11.614;2024-01-11T12:05:44;41.97;;;16.50;;
72394;SDS011;60384;48.152;11.614;2024-01-11T12:08:46;45.78;;;17.48;;
72394;SDS011;60384;48.152;11.614;2024-01-11T12:11:51;45.40;;;16.60;;
72394;SDS011;60384;48.152;11.614;2024-01-11T12:14:53;50.00;;;17.33;;
72394;SDS011;60384;48.152;11.614;2024-01-11T12:17:57;46.53;;;16.48;;
72394;SDS011;60384;48.152;11.614;2024-01-11T12:21:00;46.85;;;16.75;;
72394;SDS011;60384;48.152;11.614;2024-01-11T12:24:02;42.38;;;16.63;;
72394;SDS011;60384;48.152;11.614;2024-01-11T12:27:05;3.20;;;1.55;;
72394;SDS011;60384;48.152;11.614;2024-01-11T12:30:07;29.45;;;10.32;;
72394;SDS011;60384;48.152;11.614;2024-01-11T12:33:14;37.58;;;13.75;;
72394;SDS011;60384;48.152;11.614;2024-01-11T12:36:18;38.50;;;16.30;;
72394;SDS011;60384;48.152;11.614;2024-01-11T12:39:20;41.03;;;16.63;;
72394;SDS011;60384;48.152;11.614;2024-01-11T12:42:23;46.95;;;17.45;;
72394;SDS011;60384;48.152;11.614;2024-01-11T12:48:28;39.40;;;15.65;;
72394;SDS011;60384;48.152;11.614;2024-01-11T12:51:32;46.40;;;16.65;;
72394;SDS011;60384;48.152;11.614;2024-01-11T12:54:37;45.10;;;15.30;;
72394;SDS011;60384;48.152;11.614;2024-01-11T12:57:39;40.95;;;14.60;;
72394;SDS011;60384;48.152;11.614;2024-01-11T13:00:41;43.33;;;16.77;;
72394;SDS011;60384;48.152;11.614;2024-01-11T13:03:44;44.80;;;15.50;;
72394;SDS011;60384;48.152;11.614;2024-01-11T13:06:48;42.20;;;17.25;;
72394;SDS011;60384;48.152;11.614;2024-01-11T13:09:51;35.17;;;13.80;;
72394;SDS011;60384;48.152;11.614;2024-01-11T13:12:53;40.88;;;15.32;;
72394;SDS011;60384;48.152;11.614;2024-01-11T13:15:55;35.42;;;14.98;;
72394;SDS011;60384;48.152;11.614;2024-01-11T13:18:58;42.97;;;15.40;;
72394;SDS011;60384;48.152;11.614;2024-01-11T13:25:07;40.03;;;15.68;;
72394;SDS011;60384;48.152;11.614;2024-01-11T13:28:09;41.33;;;16.08;;
72394;SDS011;60384;48.152;11.614;2024-01-11T13:31:12;38.78;;;14.90;;
72394;SDS011;60384;48.152;11.614;2024-01-11T13:34:14;49.22;;;17.85;;
72394;SDS011;60384;48.152;11.614;2024-01-11T13:40:21;39.28;;;15.23;;
72394;SDS011;60384;48.152;11.614;2024-01-11T13:43:23;44.17;;;17.48;;
72394;SDS011;60384;48.152;11.614;2024-01-11T13:46:25;43.95;;;17.17;;
72394;SDS011;60384;48.152;11.614;2024-01-11T13:49:27;45.95;;;17.27;;
72394;SDS011;60384;48.152;11.614;2024-01-11T13:52:31;40.30;;;16.00;;
72394;SDS011;60384;48.152;11.614;2024-01-11T13:55:32;44.47;;;16.30;;
72394;SDS011;60384;48.152;11.614;2024-01-11T13:58:37;41.85;;;15.82;;
72394;SDS011;60384;48.152;11.614;2024-01-11T14:01:39;6.38;;;2.20;;
72394;SDS011;60384;48.152;11.614;2024-01-11T14:04:41;7.03;;;3.33;;
72394;SDS011;60384;48.152;11.614;2024-01-11T14:10:48;25.77;;;12.23;;
72394;SDS011;60384;48.152;11.614;2024-01-11T14:13:50;45.88;;;17.95;;
72394;SDS011;60384;48.152;11.614;2024-01-11T14:16:52;47.63;;;16.40;;
72394;SDS011;60384;48.152;11.614;2024-01-11T14:19:54;49.75;;;17.70;;
72394;SDS011;60384;48.152;11.614;2024-01-11T14:22:57;46.25;;;17.30;;
72394;SDS011;60384;48.152;11.614;2024-01-11T14:25:59;46.60;;;15.77;;
72394;SDS011;60384;48.152;11.614;2024-01-11T14:29:01;44.10;;;17.02;;
72394;SDS011;60384;48.152;11.614;2024-01-11T14:35:06;43.33;;;17.00;;
72394;SDS011;60384;48.152;11.614;2024-01-11T14:38:10;52.30;;;18.35;;
72394;SDS011;60384;48.152;11.614;2024-01-11T14:41:12;37.17;;;13.40;;
72394;SDS011;60384;48.152;11.614;2024-01-11T14:44:14;34.58;;;13.48;;
72394;SDS011;60384;48.152;11.614;2024-01-11T14:47:16;5.68;;;3.72;;
72394;SDS011;60384;48.152;11.614;2024-01-11T14:50:18;4.68;;;2.45;;
72394;SDS011;60384;48.152;11.614;2024-01-11T14:53:22;48.10;;;17.58;;
72394;SDS011;60384;48.152;11.614;2024-01-11T14:56:24;51.92;;;17.98;;
72394;SDS011;60384;48.152;11.614;2024-01-11T14:59:26;51.80;;;18.02;;
72394;SDS011;60384;48.152;11.614;2024-01-11T15:02:28;44.33;;;16.80;;
72394;SDS011;60384;48.152;11.614;2024-01-11T15:05:29;41.75;;;15.15;;
72394;SDS011;60384;48.152;11.614;2024-01-11T15:08:33;48.97;;;17.60;;
72394;SDS011;60384;48.152;11.614;2024-01-11T15:11:35;48.50;;;18.20;;
72394;SDS011;60384;48.152;11.614;2024-01-11T15:14:37;48.45;;;16.90;;
72394;SDS011;60384;48.152;11.614;2024-01-11T15:17:39;52.03;;;18.33;;
72394;SDS011;60384;48.152;11.614;2024-01-11T15:20:41;48.00;;;17.45;;
72394;SDS011;60384;48.152;11.614;2024-01-11T15:23:44;49.40;;;18.52;;
72394;SDS011;60384;48.152;11.614;2024-01-11T15:26:46;36.95;;;13.60;;
72394;SDS011;60384;48.152;11.614;2024-01-11T15:29:49;47.88;;;18.17;;
72394;SDS011;60384;48.152;11.614;2024-01-11T15:32:51;51.65;;;18.02;;
72394;SDS011;60384;48.152;11.614;2024-01-11T15:35:53;46.67;;;17.17;;
72394;SDS011;60384;48.152;11.614;2024-01-11T15:38:57;28.77;;;11.57;;
72394;SDS011;60384;48.152;11.614;2024-01-11T15:41:59;43.42;;;16.23;;
72394;SDS011;60384;48.152;11.614;2024-01-11T15:48:03;38.60;;;15.63;;
72394;SDS011;60384;48.152;11.614;2024-01-11T15:51:06;51.33;;;17.88;;
72394;SDS011;60384;48.152;11.614;2024-01-11T15:54:09;44.90;;;17.08;;
72394;SDS011;60384;48.152;11.614;2024-01-11T15:57:11;45.38;;;17.65;;
72394;SDS011;60384;48.152;11.614;2024-01-11T16:03:15;50.92;;;17.98;;
72394;SDS011;60384;48.152;11.614;2024-01-11T16:06:19;45.65;;;16.30;;
72394;SDS011;60384;48.152;11.614;2024-01-11T16:12:24;49.95;;;17.48;;
72394;SDS011;60384;48.152;11.614;2024-01-11T16:15:26;46.45;;;17.85;;
72394;SDS011;60384;48.152;11.614;2024-01-11T16:18:28;42.28;;;16.83;;
72394;SDS011;60384;48.152;11.614;2024-01-11T16:21:35;46.35;;;17.55;;
72394;SDS011;60384;48.152;11.614;2024-01-11T16:24:38;35.42;;;15.48;;
72394;SDS011;60384;48.152;11.614;2024-01-11T16:27:41;33.72;;;12.90;;
72394;SDS011;60384;48.152;11.614;2024-01-11T16:30:43;50.03;;;19.40;;
72394;SDS011;60384;48.152;11.614;2024-01-11T16:33:46;46.58;;;18.52;;
72394;SDS011;60384;48.152;11.614;2024-01-11T16:36:48;41.15;;;16.77;;
72394;SDS011;60384;48.152;11.614;2024-01-11T16:39:54;53.85;;;20.00;;
72394;SDS011;60384;48.152;11.614;2024-01-11T16:42:56;50.13;;;18.70;;
72394;SDS011;60384;48.152;11.614;2024-01-11T16:45:58;29.83;;;12.25;;
72394;SDS011;60384;48.152;11.614;2024-01-11T16:49:00;58.78;;;22.17;;
72394;SDS011;60384;48.152;11.614;2024-01-11T16:52:03;48.78;;;18.65;;
72394;SDS011;60384;48.152;11.614;2024-01-11T16:55:08;56.95;;;19.75;;
72394;SDS011;60384;48.152;11.614;2024-01-11T16:58:16;50.13;;;19.75;;
72394;SDS011;60384;48.152;11.614;2024-01-11T17:01:17;45.33;;;17.20;;
72394;SDS011;60384;48.152;11.614;2024-01-11T17:04:19;49.70;;;19.58;;
72394;SDS011;60384;48.152;11.614;2024-01-11T17:07:21;16.02;;;7.68;;
72394;SDS011;60384;48.152;11.614;2024-01-11T17:10:25;40.45;;;16.45;;
72394;SDS011;60384;48.152;11.614;2024-01-11T17:13:27;45.55;;;16.90;;
72394;SDS011;60384;48.152;11.614;2024-01-11T17:16:29;32.13;;;10.77;;
72394;SDS011;60384;48.152;11.614;2024-01-11T17:19:31;27.65;;;10.52;;
72394;SDS011;60384;48.152;11.614;2024-01-11T17:22:34;42.22;;;18.45;;
72394;SDS011;60384;48.152;11.614;2024-01-11T17:25:37;50.83;;;17.90;;
72394;SDS011;60384;48.152;11.614;2024-01-11T17:28:39;50.78;;;17.33;;
72394;SDS011;60384;48.152;11.614;2024-01-11T17:31:41;46.97;;;18.50;;
72394;SDS011;60384;48.152;11.614;2024-01-11T17:34:45;51.92;;;18.23;;
72394;SDS011;60384;48.152;11.614;2024-01-11T17:37:52;43.30;;;16.98;;
72394;SDS011;60384;48.152;11.614;2024-01-11T17:40:55;57.00;;;18.75;;
72394;SDS011;60384;48.152;11.614;2024-01-11T17:43:57;49.95;;;17.88;;
72394;SDS011;60384;48.152;11.614;2024-01-11T17:46:59;44.88;;;17.35;;
72394;SDS011;60384;48.152;11.614;2024-01-11T17:50:01;45.30;;;18.25;;
72394;SDS011;60384;48.152;11.614;2024-01-11T17:53:03;49.75;;;18.70;;
72394;SDS011;60384;48.152;11.614;2024-01-11T17:59:08;41.92;;;16.52;;
72394;SDS011;60384;48.152;11.614;2024-01-11T18:02:11;36.83;;;14.13;;
72394;SDS011;60384;48.152;11.614;2024-01-11T18:05:13;9.27;;;5.45;;
72394;SDS011;60384;48.152;11.614;2024-01-11T18:08:15;53.05;;;19.25;;
72394;SDS011;60384;48.152;11.614;2024-01-11T18:11:18;41.67;;;16.73;;
72394;SDS011;60384;48.152;11.614;2024-01-11T18:14:20;55.10;;;19.73;;
72394;SDS011;60384;48.152;11.614;2024-01-11T18:17:22;51.95;;;17.52;;
72394;SDS011;60384;48.152;11.614;2024-01-11T18:20:25;52.47;;;18.70;;
72394;SDS011;60384;48.152;11.614;2024-01-11T18:23:27;49.08;;;18.02;;
72394;SDS011;60384;48.152;11.614;2024-01-11T18:26:31;52.38;;;20.75;;
72394;SDS011;60384;48.152;11.614;2024-01-11T18:29:33;45.72;;;17.05;;
72394;SDS011;60384;48.152;11.614;2024-01-11T18:35:37;41.47;;;16.45;;
72394;SDS011;60384;48.152;11.614;2024-01-11T18:38:41;52.40;;;18.13;;
72394;SDS011;60384;48.152;11.614;2024-01-11T18:44:49;42.88;;;16.25;;
72394;SDS011;60384;48.152;11.614;2024-01-11T18:47:51;48.00;;;16.13;;
72394;SDS011;60384;48.152;11.614;2024-01-11T18:50:53;3.72;;;1.90;;
72394;SDS011;60384;48.152;11.614;2024-01-11T18:53:55;46.63;;;17.08;;
72394;SDS011;60384;48.152;11.614;2024-01-11T18:56:59;32.22;;;11.38;;
72394;SDS011;60384;48.152;11.614;2024-01-11T19:00:01;46.58;;;15.48;;
72394;SDS011;60384;48.152;11.614;2024-01-11T19:06:05;29.30;;;12.45;;
72394;SDS011;60384;48.152;11.614;2024-01-11T19:09:08;41.30;;;13.80;;
72394;SDS011;60384;48.152;11.614;2024-01-11T19:12:11;36.90;;;13.27;;
72394;SDS011;60384;48.152;11.614;2024-01-11T19:15:13;12.27;;;5.22;;
72394;SDS011;60384;48.152;11.614;2024-01-11T19:21:17;35.85;;;14.02;;
72394;SDS011;60384;48.152;11.614;2024-01-11T19:24:19;33.78;;;13.90;;
72394;SDS011;60384;48.152;11.614;2024-01-11T19:27:22;15.25;;;6.90;;
72394;SDS011;60384;48.152;11.614;2024-01-11T19:30:25;43.97;;;15.57;;
72394;SDS011;60384;48.152;11.614;2024-01-11T19:33:28;40.22;;;14.55;;
72394;SDS011;60384;48.152;11.614;2024-01-11T19:36:30;46.28;;;14.38;;
72394;SDS011;60384;48.152;11.614;2024-01-11T19:39:32;21.48;;;9.27;;
72394;SDS011;60384;48.152;11.614;2024-01-11T19:42:36;8.38;;;3.33;;
72394;SDS011;60384;48.152;11.614;2024-01-11T19:45:38;5.45;;;1.50;;
72394;SDS011;60384;48.152;11.614;2024-01-11T19:51:42;35.33;;;13.18;;
72394;SDS011;60384;48.152;11.614;2024-01-11T19:57:47;42.72;;;14.55;;
72394;SDS011;60384;48.152;11.614;2024-01-11T20:00:50;35.90;;;13.43;;
72394;SDS011;60384;48.152;11.614;2024-01-11T20:03:53;45.70;;;15.10;;
72394;SDS011;60384;48.152;11.614;2024-01-11T20:06:56;46.15;;;15.38;;
72394;SDS011;60384;48.152;11.614;2024-01-11T20:09:58;37.95;;;14.02;;
72394;SDS011;60384;48.152;11.614;2024-01-11T20:13:02;45.45;;;16.67;;
72394;SDS011;60384;48.152;11.614;2024-01-11T20:16:04;17.77;;;8.30;;
72394;SDS011;60384;48.152;11.614;2024-01-11T20:19:08;32.47;;;10.50;;
72394;SDS011;60384;48.152;11.614;2024-01-11T20:22:10;33.70;;;14.25;;
72394;SDS011;60384;48.152;11.614;2024-01-11T20:28:15;29.58;;;11.00;;
72394;SDS011;60384;48.152;11.614;2024-01-11T20:31:17;35.22;;;14.63;;